Meath Environmental Platform

Observations for Trim Market St

Time AQI Temp °C Hum % Pres Pa CO μg/m³ H₂S μg/m³ NO μg/m³ NO₂ μg/m³ O₃ μg/m³ SO₂ μg/m³ PM1 μg/m³ PM2.5 μg/m³ PM10 μg/m³
Saturday 11 July 2026
20:25 1 26 56 57,895 0 1.45 0 10.7 28.97 0 5.7 8.27 11.79
20:24 1 26.1 56 57,895 0 1.98 0 12.39 30.29 0 7.13 10.82 15.36
20:23 1 26.1 56 57,895 0 0.7 0 13 25.97 0 6.41 9.81 13.94
20:22 1 26.2 56 57,893 0 0 0 10.29 28.11 0 4.99 8.8 14.66
20:21 1 26.2 55 57,893 0 0 0 9 26.22 0 8.55 14.38 20.37
20:19 1 26.2 55 57,893 0 0 0 10.01 13.76 0 6.41 8.82 12.53
20:17 1 26.2 55 57,893 0 0 0 9.62 17.31 0 5.7 7.3 11.1
20:14 1 26.3 55 57,895 0 0 0 4.42 18.62 0 6.41 9.34 13.26
20:13 1 26.3 55 57,895 0 0 0 9.13 25.11 0 6.41 9.35 13.26
20:00 1 26.5 54 57,882 0 0 0 5.36 13.19 0 4.28 7.36 10.41
19:59 1 26.6 54 57,879 0 0 0 7.33 10.45 0 4.28 7.36 9.69
19:58 1 26.6 54 57,881 0 0 0 6.33 14.35 0 6.41 8.88 13.29
19:57 1 26.6 54 57,881 0 0 0 6.22 17.04 0 7.13 10.4 14.73
19:56 1 26.6 54 57,880 0 0 0 7.12 10.81 0 6.41 9.39 13.29
19:55 1 26.6 54 57,875 0 0.44 0 10.23 18.79 0 5.7 8.38 11.13
19:54 1 26.7 54 57,869 0 0 0 11.71 27 0 4.28 7.36 10.41
19:53 1 26.7 54 57,860 0 0 0 13.11 9.83 0 4.99 7.87 12.58
19:52 1 26.7 54 57,851 0 1.31 0 14.31 16.15 0 5.7 8.89 14.02
19:51 1 26.7 54 57,840 0 0 0 11.82 15.86 0 7.13 9.91 13.3
19:48 1 26.7 54 57,821 0 0 0 8.75 18.62 0 6.41 8.91 12.59